createdAt,value
2019-04-06T00:01:23.455Z,37.80
2019-04-06T00:03:54.826Z,39.25
2019-04-06T00:06:26.283Z,39.30
2019-04-06T00:08:57.559Z,38.60
2019-04-06T00:11:28.951Z,38.50
2019-04-06T00:14:00.232Z,40.00
2019-04-06T00:16:31.610Z,40.65
2019-04-06T00:19:02.841Z,42.03
2019-04-06T00:21:34.067Z,43.80
2019-04-06T00:24:05.462Z,44.00
2019-04-06T00:27:01.680Z,41.95
2019-04-06T00:29:32.905Z,42.03
2019-04-06T00:32:11.901Z,41.85
2019-04-06T00:34:43.119Z,43.85
2019-04-06T00:37:14.537Z,42.75
2019-04-06T00:39:45.817Z,42.65
2019-04-06T00:42:17.231Z,46.92
2019-04-06T00:44:49.584Z,49.15
2019-04-06T00:47:20.889Z,49.85
2019-04-06T00:49:52.169Z,48.98
2019-04-06T00:52:23.432Z,48.73
2019-04-06T00:54:54.679Z,48.55
2019-04-06T00:57:26.022Z,49.10
2019-04-06T00:59:57.301Z,48.95
2019-04-06T01:02:28.683Z,49.08
2019-04-06T01:04:59.965Z,48.80
2019-04-06T01:07:31.475Z,47.62
2019-04-06T01:10:03.119Z,47.65
2019-04-06T01:12:34.509Z,47.13
2019-04-06T01:15:07.398Z,47.00
2019-04-06T01:17:38.721Z,44.23
2019-04-06T01:20:10.257Z,44.65
2019-04-06T01:22:41.570Z,44.95
2019-04-06T01:25:13.842Z,44.03
2019-04-06T01:27:45.135Z,44.15
2019-04-06T01:30:16.669Z,42.83
2019-04-06T01:32:47.934Z,42.30
2019-04-06T01:35:19.257Z,41.77
2019-04-06T01:37:50.618Z,45.30
2019-04-06T01:40:21.750Z,43.70
2019-04-06T01:42:54.155Z,44.85
2019-04-06T01:45:26.309Z,44.20
2019-04-06T01:47:57.754Z,45.30
2019-04-06T01:50:29.071Z,42.88
2019-04-06T01:53:00.420Z,44.50
2019-04-06T01:55:31.625Z,43.13
2019-04-06T01:58:02.934Z,43.80
2019-04-06T02:00:34.281Z,44.05
2019-04-06T02:03:05.601Z,45.33
2019-04-06T02:05:36.878Z,43.68
2019-04-06T02:08:08.225Z,42.48
2019-04-06T02:10:39.519Z,44.67
2019-04-06T02:13:10.854Z,43.73
2019-04-06T02:15:43.101Z,44.45
2019-04-06T02:18:14.409Z,44.03
2019-04-06T02:20:45.681Z,41.83
2019-04-06T02:23:17.031Z,42.53
2019-04-06T02:25:48.270Z,43.08
2019-04-06T02:28:19.567Z,42.85
2019-04-06T02:30:58.201Z,41.20
2019-04-06T02:33:31.097Z,41.90
2019-04-06T02:36:06.726Z,41.00
2019-04-06T02:38:45.731Z,41.98
2019-04-06T02:41:21.357Z,41.75
2019-04-06T02:43:52.688Z,43.78
2019-04-06T02:46:24.848Z,43.63
2019-04-06T02:48:56.197Z,42.40
2019-04-06T02:51:27.551Z,42.45
2019-04-06T02:53:58.767Z,42.33
2019-04-06T02:56:44.341Z,42.75
2019-04-06T02:59:03.077Z,43.50
2019-04-06T03:01:34.343Z,43.48
2019-04-06T03:04:05.719Z,42.35
2019-04-06T03:06:36.938Z,45.78
2019-04-06T03:09:11.314Z,43.65
2019-04-06T03:11:41.245Z,41.70
2019-04-06T03:14:12.511Z,44.40
2019-04-06T03:16:43.718Z,43.63
2019-04-06T03:19:15.000Z,44.15
2019-04-06T03:21:46.245Z,46.75
2019-04-06T03:24:17.541Z,42.83
2019-04-06T03:27:00.990Z,45.03
2019-04-06T03:29:21.905Z,42.53
2019-04-06T03:31:53.164Z,41.30
2019-04-06T03:34:24.475Z,43.55
2019-04-06T03:36:55.721Z,40.67
2019-04-06T03:39:27.077Z,41.90
2019-04-06T03:41:58.410Z,44.23
2019-04-06T03:44:29.736Z,43.02
2019-04-06T03:47:02.123Z,43.15
2019-04-06T03:49:33.486Z,41.10
2019-04-06T03:52:04.799Z,42.55
2019-04-06T03:54:36.216Z,44.10
2019-04-06T03:57:14.419Z,44.38
2019-04-06T03:59:40.716Z,43.63
2019-04-06T04:02:12.064Z,44.00
2019-04-06T04:04:43.319Z,46.45
2019-04-06T04:07:14.585Z,44.65
2019-04-06T04:09:46.291Z,43.92
2019-04-06T04:12:17.563Z,44.88
2019-04-06T04:14:48.908Z,44.67
2019-04-06T04:17:20.513Z,43.60
2019-04-06T04:19:52.089Z,45.28
2019-04-06T04:22:23.425Z,44.65
2019-04-06T04:24:55.900Z,46.20
2019-04-06T04:27:30.198Z,46.98
2019-04-06T04:30:00.487Z,49.03
2019-04-06T04:32:31.834Z,48.30
2019-04-06T04:35:03.224Z,47.88
2019-04-06T04:37:34.514Z,48.38
2019-04-06T04:40:05.942Z,49.03
2019-04-06T04:42:38.096Z,47.13
2019-04-06T04:45:09.608Z,48.98
2019-04-06T04:47:41.696Z,48.98
2019-04-06T04:50:13.191Z,50.20
2019-04-06T04:52:44.537Z,49.35
2019-04-06T04:55:15.842Z,52.25
2019-04-06T04:57:47.093Z,60.20
2019-04-06T05:00:18.381Z,54.00
2019-04-06T05:02:50.654Z,51.92
2019-04-06T05:05:21.891Z,52.48
2019-04-06T05:07:53.213Z,53.08
2019-04-06T05:10:24.571Z,52.25
2019-04-06T05:12:55.749Z,53.58
2019-04-06T05:15:35.953Z,56.40
2019-04-06T05:18:07.145Z,56.90
2019-04-06T05:20:38.474Z,55.17
2019-04-06T05:23:09.801Z,53.00
2019-04-06T05:25:41.174Z,52.70
2019-04-06T05:28:12.465Z,54.08
2019-04-06T05:30:43.789Z,53.55
2019-04-06T05:33:15.114Z,56.05
2019-04-06T05:35:46.431Z,55.48
2019-04-06T05:38:17.775Z,55.48
2019-04-06T05:40:49.080Z,57.03
2019-04-06T05:43:20.349Z,55.25
2019-04-06T05:45:51.674Z,57.35
2019-04-06T05:48:23.957Z,60.55
2019-04-06T05:50:55.527Z,59.33
2019-04-06T05:53:26.867Z,59.38
2019-04-06T05:55:58.191Z,59.45
2019-04-06T05:58:29.564Z,58.28
2019-04-06T06:01:03.699Z,60.52
2019-04-06T06:03:34.057Z,56.15
2019-04-06T06:06:05.433Z,56.35
2019-04-06T06:08:38.260Z,55.43
2019-04-06T06:11:09.664Z,51.50
2019-04-06T06:13:40.935Z,45.98
2019-04-06T06:16:12.370Z,47.70
2019-04-06T06:18:43.697Z,45.05
2019-04-06T06:21:15.006Z,42.75
2019-04-06T06:23:46.444Z,42.35
2019-04-06T06:26:17.981Z,41.42
2019-04-06T06:28:50.451Z,40.73
2019-04-06T06:31:21.900Z,41.23
2019-04-06T06:33:53.253Z,39.53
2019-04-06T06:36:24.618Z,40.15
2019-04-06T06:38:55.949Z,37.50
2019-04-06T06:41:27.421Z,38.63
2019-04-06T06:43:58.875Z,40.45
2019-04-06T06:46:30.253Z,42.25
2019-04-06T06:49:02.551Z,40.85
2019-04-06T06:51:34.280Z,40.73
2019-04-06T06:54:07.456Z,42.08
2019-04-06T06:56:38.724Z,42.15
2019-04-06T06:59:10.187Z,41.42
2019-04-06T07:01:41.525Z,40.83
2019-04-06T07:04:12.742Z,40.17
2019-04-06T07:06:43.988Z,40.40
2019-04-06T07:09:16.402Z,38.17
2019-04-06T07:11:47.798Z,36.65
2019-04-06T07:14:19.408Z,35.63
2019-04-06T07:16:50.718Z,34.73
2019-04-06T07:19:22.067Z,35.70
2019-04-06T07:21:53.511Z,34.85
2019-04-06T07:24:25.003Z,32.35
2019-04-06T07:26:56.683Z,33.08
2019-04-06T07:29:28.156Z,31.15
2019-04-06T07:32:02.686Z,31.30
2019-04-06T07:34:34.975Z,30.72
2019-04-06T07:37:08.416Z,25.35
2019-04-06T07:39:40.664Z,22.00
2019-04-06T07:42:12.593Z,24.40
2019-04-06T07:44:44.589Z,21.02
2019-04-06T07:47:16.383Z,22.40
2019-04-06T07:49:49.057Z,22.02
2019-04-06T07:52:20.459Z,21.87
2019-04-06T07:54:51.822Z,23.73
2019-04-06T07:57:23.249Z,22.22
2019-04-06T07:59:54.665Z,23.15
2019-04-06T08:02:26.038Z,21.07
2019-04-06T08:04:57.493Z,21.45
2019-04-06T08:07:29.123Z,21.30
2019-04-06T08:10:01.996Z,21.00
2019-04-06T08:12:34.708Z,20.75
2019-04-06T08:15:08.086Z,21.12
2019-04-06T08:17:40.689Z,21.15
2019-04-06T08:20:12.220Z,20.40
2019-04-06T08:22:43.778Z,19.98
2019-04-06T08:25:16.424Z,18.48
2019-04-06T08:27:47.904Z,39.83
2019-04-06T08:30:19.415Z,24.00
2019-04-06T08:32:50.744Z,19.50
2019-04-06T08:35:25.994Z,20.12
2019-04-06T08:37:55.200Z,29.80
2019-04-06T08:40:26.660Z,21.57
2019-04-06T08:42:58.422Z,18.25
2019-04-06T08:45:29.823Z,27.27
2019-04-06T08:48:01.205Z,16.65
2019-04-06T08:50:33.678Z,23.12
2019-04-06T08:53:05.031Z,20.43
2019-04-06T08:55:36.713Z,22.98
2019-04-06T08:58:08.214Z,21.50
2019-04-06T09:00:39.534Z,20.48
2019-04-06T09:03:11.908Z,21.42
2019-04-06T09:05:43.358Z,21.07
2019-04-06T09:08:16.539Z,21.73
2019-04-06T09:10:48.078Z,29.87
2019-04-06T09:13:19.526Z,18.55
2019-04-06T09:15:51.029Z,119.85
2019-04-06T09:18:22.721Z,20.70
2019-04-06T09:20:54.190Z,66.47
2019-04-06T09:23:25.892Z,55.83
2019-04-06T09:25:57.859Z,21.50
2019-04-06T09:28:29.724Z,39.25
2019-04-06T09:31:02.183Z,17.43
2019-04-06T09:33:33.702Z,15.10
2019-04-06T09:36:05.197Z,13.88
2019-04-06T09:38:36.592Z,13.95
2019-04-06T09:41:08.045Z,14.10
2019-04-06T09:43:39.416Z,13.68
2019-04-06T09:46:15.671Z,12.68
2019-04-06T09:49:01.021Z,13.13
2019-04-06T09:51:52.954Z,11.73
2019-04-06T09:54:29.822Z,14.33
2019-04-06T09:57:05.831Z,12.00
2019-04-06T09:59:48.475Z,11.65
2019-04-06T10:02:21.699Z,16.87
2019-04-06T10:05:10.039Z,18.48
2019-04-06T10:07:43.061Z,16.97
2019-04-06T10:10:29.035Z,14.35
2019-04-06T10:13:11.022Z,12.88
2019-04-06T10:15:46.776Z,13.30
2019-04-06T10:18:35.969Z,12.78
2019-04-06T10:21:20.853Z,61.35
2019-04-06T10:24:09.983Z,35.33
2019-04-06T10:26:42.896Z,16.77
2019-04-06T10:29:31.114Z,23.15
2019-04-06T10:32:06.833Z,25.00
2019-04-06T10:34:39.797Z,30.80
2019-04-06T10:39:09.938Z,13.70
2019-04-06T10:41:48.888Z,12.65
2019-04-06T10:44:28.093Z,12.18
2019-04-06T10:47:16.753Z,12.95
2019-04-06T10:49:52.721Z,12.35
2019-04-06T10:52:26.988Z,12.73
2019-04-06T10:55:00.216Z,10.95
2019-04-06T10:57:41.946Z,12.63
2019-04-06T11:00:31.229Z,12.25
2019-04-06T11:03:04.231Z,12.50
2019-04-06T11:05:49.446Z,12.47
2019-04-06T11:08:22.435Z,11.63
2019-04-06T11:11:04.702Z,13.78
2019-04-06T11:13:37.610Z,12.88
2019-04-06T11:16:22.802Z,13.05
2019-04-06T11:19:01.548Z,12.23
2019-04-06T11:21:46.569Z,12.35
2019-04-06T11:24:35.829Z,12.58
2019-04-06T11:27:27.264Z,13.78
2019-04-06T11:30:14.747Z,12.88
2019-04-06T11:33:02.028Z,11.85
2019-04-06T11:35:50.847Z,11.43
2019-04-06T11:38:23.802Z,12.43
2019-04-06T11:40:56.717Z,56.00
2019-04-06T11:43:33.530Z,23.67
2019-04-06T11:46:12.615Z,32.38
2019-04-06T11:49:01.985Z,90.53
2019-04-06T11:51:37.921Z,20.12
2019-04-06T11:54:17.063Z,16.95
2019-04-06T11:56:56.141Z,13.13
2019-04-06T11:59:29.120Z,13.45
2019-04-06T12:02:02.937Z,12.95
2019-04-06T12:04:38.781Z,89.37
2019-04-06T12:07:11.657Z,18.50
2019-04-06T12:10:00.801Z,14.03
2019-04-06T12:12:49.290Z,14.78
2019-04-06T12:15:25.100Z,15.00
2019-04-06T12:17:58.000Z,15.72
2019-04-06T12:20:30.980Z,15.75
2019-04-06T12:23:03.904Z,14.40
2019-04-06T12:25:39.828Z,12.88
2019-04-06T12:28:12.640Z,12.82
2019-04-06T12:31:01.830Z,12.07
2019-04-06T12:33:43.758Z,13.40
2019-04-06T12:36:19.645Z,13.98
2019-04-06T12:38:52.859Z,16.52
2019-04-06T12:41:26.256Z,17.82
2019-04-06T12:44:15.404Z,19.62
